Green, Kansas
Current Conditions -  °F | °C
As of 3:52 PM on Thursday 23 Oct 2014 (Local Time) from KMHK Reporting Station
Clear Clear  
Wind Chill: 76°   Ceiling: Unl
Heat Index: 76°   Visibility: 10mi
Dew Point: 55°   Wind: 3mph
Humidity: 48%   Direction: NA
Pressure: 30.02"   Gusts: NA
Location:  39.43°N, 97°W
Report Text: KMHK 232052Z VRB03KT 10SM CLR 24/13 A3002 RMK AO2 SLP159 T02440128 56018
Loading
Personal Weather Stations






























Interactive Weather Map
Tropical Storm Tracking
New forecast layout! Learn more

10-Day Weather Forecast

Advertisements
Track Severe Weather on mobile